Time;durP1;ratioP1;P1;durP2;ratioP2;P2;SDS_P1;SDS_P2;PMS_P1;PMS_P2;Temp;Humidity;BMP_temperature;BMP_pressure;BME280_temperature;BME280_humidity;BME280_pressure;Samples;Min_cycle;Max_cycle;Signal;HPM_P1;HPM_P2
2023/01/16 00:00:55;;;;;;;4.55;0.93;;;;;;;-146.25;91.11;52445.25;2088152;28;36595;-76
2023/01/16 00:01:58;;;;;;;4.35;1.13;;;;;;;-146.25;91.15;52495.94;2080058;28;38634;-77
2023/01/16 00:03:00;;;;;;;4.60;0.85;;;;;;;-146.25;91.18;52481.75;2089942;28;20045;-76
2023/01/16 00:04:02;;;;;;;4.60;0.80;;;;;;;-146.25;91.27;52471.59;2097304;28;37446;-78
2023/01/16 00:05:04;;;;;;;2.63;0.88;;;;;;;-146.25;91.84;52451.31;2096260;28;41295;-78
2023/01/16 00:06:06;;;;;;;3.90;0.80;;;;;;;-146.25;91.83;52481.75;2097055;28;39044;-78
2023/01/16 00:07:08;;;;;;;2.95;0.93;;;;;;;-146.25;91.69;52457.41;2096941;28;41884;-75
2023/01/16 00:08:09;;;;;;;4.22;0.63;;;;;;;-146.25;91.65;52487.81;2098100;28;20041;-76
2023/01/16 00:09:11;;;;;;;3.60;1.08;;;;;;;-146.25;91.68;52502.03;2097880;28;39061;-75
2023/01/16 00:10:16;;;;;;;2.88;0.70;;;;;;;-146.25;91.85;52510.13;2087436;28;38802;-76
2023/01/16 00:11:18;;;;;;;4.47;0.80;;;;;;;-146.25;91.92;52473.63;2088697;28;38901;-77
2023/01/16 00:12:19;;;;;;;3.53;0.85;;;;;;;-146.25;91.56;52500.00;2097119;28;42110;-76
2023/01/16 00:13:21;;;;;;;4.53;0.75;;;;;;;-146.25;91.63;52489.84;2097216;28;37219;-76
2023/01/16 00:14:23;;;;;;;4.88;0.88;;;;;;;-146.25;92.23;52491.88;2097486;28;35994;-75
2023/01/16 00:15:27;;;;;;;2.03;0.70;;;;;;;-146.25;91.69;52500.00;2096630;28;37616;-76
2023/01/16 00:16:31;;;;;;;2.13;0.80;;;;;;;-146.25;91.87;52479.72;2097228;28;41022;-76
2023/01/16 00:17:33;;;;;;;3.35;0.90;;;;;;;-146.25;91.90;52495.94;2087580;28;38267;-76
2023/01/16 00:18:35;;;;;;;2.65;0.88;;;;;;;-146.25;91.72;52477.69;2088338;28;37551;-76
2023/01/16 00:19:36;;;;;;;3.42;0.77;;;;;;;-146.25;92.22;52473.63;2096839;28;34216;-76
2023/01/16 00:20:38;;;;;;;5.15;0.90;;;;;;;-146.25;91.87;52497.97;2097573;28;20071;-75
2023/01/16 00:21:40;;;;;;;2.67;1.17;;;;;;;-146.25;92.03;52477.69;2097158;28;40746;-75
2023/01/16 00:22:41;;;;;;;3.80;1.00;;;;;;;-146.25;91.80;52526.34;2096960;28;38999;-76
2023/01/16 00:23:43;;;;;;;4.03;1.20;;;;;;;-146.25;92.48;52469.56;2096821;28;40183;-76
2023/01/16 00:24:44;;;;;;;5.90;1.10;;;;;;;-146.25;92.46;52453.34;2097002;28;36970;-75
2023/01/16 00:25:46;;;;;;;4.30;1.15;;;;;;;-146.25;92.67;52465.53;2088318;28;20045;-76
2023/01/16 00:26:51;;;;;;;4.70;1.27;;;;;;;-146.25;92.54;52500.00;2089101;28;20045;-76
2023/01/16 00:27:53;;;;;;;3.95;1.27;;;;;;;-146.25;92.99;52465.53;2079951;28;32539;-76
2023/01/16 00:28:55;;;;;;;6.05;1.27;;;;;;;-146.25;92.90;52455.38;2072405;28;29142;-76
2023/01/16 00:29:59;;;;;;;3.75;0.77;;;;;;;-146.25;93.27;52481.75;2080062;28;38748;-77
2023/01/16 00:31:01;;;;;;;3.15;1.05;;;;;;;-146.25;92.90;52502.03;2088641;28;20042;-76
2023/01/16 00:32:03;;;;;;;3.92;0.80;;;;;;;-146.25;92.83;52506.06;2095298;28;40665;-76
2023/01/16 00:33:05;;;;;;;3.58;1.10;;;;;;;-146.25;92.73;52455.38;2097235;28;31865;-76
2023/01/16 00:34:07;;;;;;;4.78;0.90;;;;;;;-146.25;92.91;52510.13;2087914;28;40134;-76
2023/01/16 00:35:09;;;;;;;3.10;1.23;;;;;;;-146.25;93.12;52506.06;2087757;28;34658;-76
2023/01/16 00:36:12;;;;;;;2.70;0.77;;;;;;;-146.25;93.08;52449.31;2088738;28;39725;-77
2023/01/16 00:37:13;;;;;;;4.60;0.80;;;;;;;-146.25;93.27;52489.84;2087784;28;41731;-76
2023/01/16 00:38:18;;;;;;;4.20;1.13;;;;;;;-146.25;93.29;52481.75;2088424;28;39187;-76
2023/01/16 00:39:19;;;;;;;2.17;0.70;;;;;;;-146.25;93.42;52481.75;2095803;28;38239;-75
2023/01/16 00:40:22;;;;;;;2.65;0.50;;;;;;;-146.25;93.13;52518.25;2097274;28;38401;-76
2023/01/16 00:41:24;;;;;;;4.72;0.68;;;;;;;-146.25;93.41;52493.91;2087884;28;40476;-76
2023/01/16 00:42:28;;;;;;;2.50;0.70;;;;;;;-146.25;93.46;52439.16;2088437;28;39067;-75
2023/01/16 00:43:32;;;;;;;3.70;0.80;;;;;;;-146.25;93.29;52457.41;2097161;28;35680;-76
2023/01/16 00:44:34;;;;;;;4.65;0.80;;;;;;;-146.25;93.40;52500.00;2095953;28;37822;-75
2023/01/16 00:45:35;;;;;;;3.20;1.02;;;;;;;-146.25;93.54;52493.91;2096961;28;38645;-77
2023/01/16 00:46:37;;;;;;;5.88;0.90;;;;;;;-146.25;93.25;52465.53;2097141;28;41934;-77
2023/01/16 00:47:39;;;;;;;2.83;0.80;;;;;;;-146.25;93.28;52469.56;2097119;28;37520;-76
2023/01/16 00:48:41;;;;;;;3.70;0.63;;;;;;;-146.25;93.45;52504.03;2097254;28;36341;-76
2023/01/16 00:49:42;;;;;;;4.15;0.93;;;;;;;-146.25;93.59;52514.19;2096184;28;42582;-76
2023/01/16 00:50:44;;;;;;;4.05;0.70;;;;;;;-146.25;93.95;52502.03;2096037;28;37491;-76
2023/01/16 00:51:46;;;;;;;3.15;0.65;;;;;;;-146.25;94.18;52481.75;2087618;28;41865;-76
2023/01/16 00:52:47;;;;;;;3.72;0.73;;;;;;;-146.25;94.13;52477.69;2080108;28;35859;-76
2023/01/16 00:53:49;;;;;;;4.45;0.75;;;;;;;-146.25;94.13;52477.69;2088301;28;20917;-76
2023/01/16 00:54:51;;;;;;;4.95;0.73;;;;;;;-146.25;94.23;52526.34;2096875;28;42932;-76
2023/01/16 00:55:55;;;;;;;5.25;1.08;;;;;;;-146.25;94.23;52502.03;2096421;28;39107;-76
2023/01/16 00:56:56;;;;;;;4.47;0.82;;;;;;;-146.25;94.23;52481.75;2097062;28;34534;-76
2023/01/16 00:57:58;;;;;;;6.93;1.27;;;;;;;-146.25;94.50;52481.75;2087553;28;40366;-76
2023/01/16 00:59:00;;;;;;;5.40;0.77;;;;;;;-146.25;94.43;52481.75;2088855;28;36131;-78
2023/01/16 01:00:03;;;;;;;8.10;0.70;;;;;;;-146.25;94.22;52495.94;2096905;28;20037;-76
2023/01/16 01:01:05;;;;;;;4.93;1.15;;;;;;;-146.25;94.53;52495.94;2097140;28;39483;-74
2023/01/16 01:02:07;;;;;;;5.35;0.80;;;;;;;-146.25;94.67;52510.13;2087858;28;30963;-75
2023/01/16 01:03:09;;;;;;;3.75;0.80;;;;;;;-146.25;93.97;52530.41;2079526;28;39238;-75
2023/01/16 01:04:12;;;;;;;4.53;0.82;;;;;;;-146.25;94.36;52510.13;2087941;28;40114;-75
2023/01/16 01:05:14;;;;;;;5.18;1.00;;;;;;;-146.25;94.32;52475.66;2095954;28;38343;-78
2023/01/16 01:06:16;;;;;;;2.95;1.00;;;;;;;-146.25;94.36;52495.94;2096674;28;39746;-78
2023/01/16 01:07:17;;;;;;;3.20;0.80;;;;;;;-146.25;94.23;52481.75;2096906;28;42535;-77
2023/01/16 01:08:19;;;;;;;4.05;0.82;;;;;;;-146.25;94.41;52489.84;2096898;28;38965;-78
2023/01/16 01:09:21;;;;;;;3.60;0.88;;;;;;;-146.25;94.15;52502.03;2097150;28;31532;-77
2023/01/16 01:10:23;;;;;;;2.65;0.80;;;;;;;-146.25;94.43;52489.84;2096068;28;37928;-77
2023/01/16 01:11:25;;;;;;;5.05;0.68;;;;;;;-146.25;94.47;52473.63;2096906;28;39474;-77
2023/01/16 01:12:26;;;;;;;3.85;0.95;;;;;;;-146.25;94.55;52481.75;2096545;28;41975;-77
2023/01/16 01:13:28;;;;;;;5.03;0.70;;;;;;;-146.25;94.52;52451.31;2097474;28;20845;-77
2023/01/16 01:14:30;;;;;;;6.88;0.77;;;;;;;-146.25;94.46;52538.53;2096817;28;41841;-78
2023/01/16 01:15:32;;;;;;;6.22;1.00;;;;;;;-146.25;94.49;52469.56;2096939;28;40313;-77
2023/01/16 01:16:34;;;;;;;3.03;0.70;;;;;;;-146.25;94.34;52493.91;2096254;28;39541;-78
2023/01/16 01:17:36;;;;;;;2.30;0.80;;;;;;;-146.25;94.33;52504.03;2088069;28;38669;-77
2023/01/16 01:18:40;;;;;;;3.45;0.88;;;;;;;-146.25;94.26;52504.03;2088909;28;20148;-76
2023/01/16 01:19:42;;;;;;;2.65;0.60;;;;;;;-146.25;94.58;52469.56;2096863;28;41050;-78
2023/01/16 01:20:44;;;;;;;3.15;0.60;;;;;;;-146.25;94.31;52514.19;2087987;28;35147;-77
2023/01/16 01:21:45;;;;;;;6.10;0.82;;;;;;;-146.25;94.22;52512.16;2079769;28;37296;-76
2023/01/16 01:22:47;;;;;;;3.95;0.70;;;;;;;-146.25;94.33;52540.53;2086973;28;42874;-77
2023/01/16 01:23:49;;;;;;;6.72;0.93;;;;;;;-146.25;94.31;52520.28;2088554;28;20033;-77
2023/01/16 01:24:50;;;;;;;4.30;1.00;;;;;;;-146.25;94.41;52479.72;2088136;28;41428;-78
2023/01/16 01:25:52;;;;;;;5.95;1.08;;;;;;;-146.25;94.46;52500.00;2088585;28;39011;-76
2023/01/16 01:26:54;;;;;;;4.60;0.82;;;;;;;-146.25;94.63;52481.75;2088299;28;41645;-75
2023/01/16 01:27:56;;;;;;;2.58;0.70;;;;;;;-146.25;94.26;52510.13;2088589;28;38749;-76
2023/01/16 01:28:57;;;;;;;3.97;0.70;;;;;;;-146.25;94.41;52514.19;2088740;28;20040;-76
2023/01/16 01:29:59;;;;;;;4.18;0.70;;;;;;;-146.25;94.44;52485.81;2079764;28;39526;-76
2023/01/16 01:31:07;;;;;;;4.65;0.80;;;;;;;-146.25;94.34;52483.78;2079714;28;35452;-76
2023/01/16 01:32:09;;;;;;;5.05;0.60;;;;;;;-146.25;94.50;52469.56;2088747;28;36155;-75
2023/01/16 01:33:11;;;;;;;6.43;0.73;;;;;;;-146.25;94.54;52493.91;2079281;28;37989;-76
2023/01/16 01:34:13;;;;;;;4.40;0.77;;;;;;;-146.25;94.35;52512.16;2063709;28;37582;-75
2023/01/16 01:35:17;;;;;;;5.43;1.00;;;;;;;-146.25;94.41;52481.75;2071278;28;42893;-75
2023/01/16 01:36:18;;;;;;;7.40;0.85;;;;;;;-146.25;94.33;52475.66;2088470;28;37720;-75
2023/01/16 01:37:20;;;;;;;4.38;0.98;;;;;;;-146.25;94.28;52485.81;2081877;28;38968;-77
2023/01/16 01:38:22;;;;;;;5.32;1.05;;;;;;;-146.25;94.32;52497.97;2083236;28;38580;-78
2023/01/16 01:39:24;;;;;;;5.97;0.95;;;;;;;-146.25;94.20;52502.03;2097092;28;20041;-78
2023/01/16 01:40:25;;;;;;;2.70;0.52;;;;;;;-146.25;94.38;52502.03;2096693;28;36879;-78
2023/01/16 01:41:27;;;;;;;5.25;0.57;;;;;;;-146.25;94.46;52508.09;2096131;28;33762;-77
2023/01/16 01:42:44;;;;;;;6.53;0.60;;;;;;;-146.25;94.21;52506.06;2086367;28;37238;-77
2023/01/16 01:43:54;;;;;;;5.20;0.70;;;;;;;-146.25;94.38;52477.69;2088420;28;20085;-77
2023/01/16 01:45:10;;;;;;;2.97;0.50;;;;;;;-146.25;94.37;52518.25;2079621;28;36972;-77
2023/01/16 01:46:42;;;;;;;4.15;0.73;;;;;;;-146.25;94.33;52504.03;2073359;28;35719;-77
2023/01/16 01:47:59;;;;;;;3.95;0.90;;;;;;;-146.25;94.36;52548.66;2077152;28;39008;-77
2023/01/16 01:49:10;;;;;;;4.80;0.90;;;;;;;-146.25;93.95;52510.13;2075163;28;39617;-77
2023/01/16 01:50:46;;;;;;;3.42;0.80;;;;;;;-146.25;94.06;52493.91;2081302;28;28328;-77
2023/01/16 01:51:50;;;;;;;4.15;0.88;;;;;;;-146.25;94.13;52477.69;2079108;28;35200;-77
2023/01/16 01:52:52;;;;;;;5.85;0.80;;;;;;;-146.25;93.86;52518.25;2083508;28;28047;-77
2023/01/16 01:54:06;;;;;;;5.88;0.80;;;;;;;-146.25;93.82;52477.69;2087780;28;39639;-77
2023/01/16 01:55:13;;;;;;;3.13;0.73;;;;;;;-146.25;93.66;52477.69;2079645;28;39800;-77
2023/01/16 01:56:30;;;;;;;3.60;0.57;;;;;;;-146.25;93.85;52532.44;2073235;28;40498;-77
2023/01/16 01:57:41;;;;;;;8.23;1.08;;;;;;;-146.25;93.94;52528.38;2082036;28;36966;-78
2023/01/16 01:58:49;;;;;;;9.80;0.80;;;;;;;-146.25;93.89;52485.81;2079199;28;41954;-77
2023/01/16 02:00:18;;;;;;;4.55;0.70;;;;;;;-146.25;93.99;52506.06;2074867;28;34758;-77
2023/01/16 02:01:24;;;;;;;4.60;0.60;;;;;;;-146.25;93.54;52512.16;2088338;28;38734;-77
2023/01/16 02:02:34;;;;;;;6.10;0.60;;;;;;;-146.25;93.72;52457.41;2087559;28;40486;-78
2023/01/16 02:03:39;;;;;;;;;;;;;;;-146.25;93.93;52506.06;2080030;28;39452;-78
2023/01/16 02:04:45;;;;;;;8.23;0.75;;;;;;;-146.25;93.99;52526.34;2081204;28;40496;-77
2023/01/16 02:05:49;;;;;;;3.90;0.60;;;;;;;-146.25;93.71;52495.94;2088490;28;37814;-77
2023/01/16 02:06:56;;;;;;;4.20;0.85;;;;;;;-146.25;94.03;52483.78;2087710;28;41534;-78
2023/01/16 02:08:00;;;;;;;5.05;0.80;;;;;;;-146.25;94.06;52489.84;2087675;28;39207;-77
2023/01/16 02:09:02;;;;;;;8.57;0.95;;;;;;;-146.25;94.08;52489.84;2079563;28;41226;-78
2023/01/16 02:10:40;;;;;;;5.05;0.95;;;;;;;-146.25;93.95;52471.59;2079936;28;34597;-77
2023/01/16 02:12:00;;;;;;;4.93;0.75;;;;;;;-146.25;93.96;52526.34;2088425;28;40379;-77
2023/01/16 02:13:04;;;;;;;7.50;1.05;;;;;;;-146.25;94.06;52477.69;2088336;28;20179;-78
2023/01/16 02:14:11;;;;;;;5.53;0.98;;;;;;;-146.25;94.28;52502.03;2079537;28;35390;-77
2023/01/16 02:15:13;;;;;;;6.65;0.85;;;;;;;-146.25;94.15;52475.66;2074901;28;42092;-77
2023/01/16 02:19:15;;;;;;;2.60;0.50;;;;;;;-146.25;94.39;52479.72;2079195;28;39169;-78
2023/01/16 02:20:25;;;;;;;4.45;0.80;;;;;;;-146.25;94.59;52497.97;2084271;28;41339;-78
2023/01/16 02:22:13;;;;;;;5.55;1.05;;;;;;;-146.25;94.77;52445.25;2079207;28;40044;-78
2023/01/16 02:23:57;;;;;;;4.88;0.90;;;;;;;-146.25;95.01;52506.06;2086637;28;40995;-78
2023/01/16 02:25:38;;;;;;;6.78;0.95;;;;;;;-146.25;95.23;52487.81;2054037;28;40648;-77
2023/01/16 02:27:43;;;;;;;3.97;0.70;;;;;;;-146.25;95.42;52516.22;2073879;28;20053;-77
2023/01/16 02:29:06;;;;;;;5.15;1.30;;;;;;;-146.25;95.41;52487.81;2086972;28;41214;-77
2023/01/16 02:30:26;;;;;;;7.20;1.10;;;;;;;-146.25;95.70;52500.00;2090536;28;40038;-77
2023/01/16 02:31:55;;;;;;;6.10;1.42;;;;;;;-146.25;95.84;52475.66;2087025;28;40731;-77
2023/01/16 02:33:11;;;;;;;6.60;1.15;;;;;;;-146.25;95.97;52512.16;2093005;28;20041;-77
2023/01/16 02:34:46;;;;;;;4.72;1.13;;;;;;;-146.25;95.84;52477.69;2087600;28;38408;-77
2023/01/16 02:36:16;;;;;;;3.45;1.10;;;;;;;-146.25;95.87;52508.09;2083370;28;43617;-78
2023/01/16 02:37:38;;;;;;;6.35;1.30;;;;;;;-146.25;95.64;52522.28;2083853;28;20042;-77
2023/01/16 02:38:53;;;;;;;8.55;1.08;;;;;;;-146.25;95.74;52502.03;2091949;28;32148;-77
2023/01/16 02:40:19;;;;;;;5.35;1.10;;;;;;;-146.25;95.79;52493.91;2079496;28;20503;-77
2023/01/16 02:41:43;;;;;;;3.28;1.30;;;;;;;-146.25;95.56;52497.97;2079391;28;39032;-78
2023/01/16 02:42:56;;;;;;;3.30;0.60;;;;;;;-146.25;95.42;52477.69;2093773;28;20806;-77
2023/01/16 02:44:26;;;;;;;5.15;1.17;;;;;;;-146.25;95.26;52459.44;2086944;28;43127;-77
2023/01/16 02:46:03;;;;;;;;;;;;;;;-146.25;95.22;52508.09;2087429;28;20176;-78
2023/01/16 02:47:23;;;;;;;6.18;1.10;;;;;;;-146.25;94.89;52485.81;2096594;28;43227;-77
2023/01/16 02:48:54;;;;;;;5.30;1.13;;;;;;;-146.25;94.68;52489.84;2086801;28;27564;-78
2023/01/16 02:50:28;;;;;;;8.60;1.10;;;;;;;-146.25;94.74;52475.66;2078356;28;37392;-74
2023/01/16 02:51:42;;;;;;;5.82;1.38;;;;;;;-146.25;94.50;52481.75;2078807;28;45901;-77
2023/01/16 02:52:57;;;;;;;6.47;1.10;;;;;;;-146.25;94.61;52502.03;2086441;28;36661;-77
2023/01/16 02:54:16;;;;;;;5.50;1.15;;;;;;;-146.25;94.11;52489.84;2086138;28;42484;-77
2023/01/16 02:55:39;;;;;;;6.28;1.20;;;;;;;-146.25;93.95;52487.81;2092215;28;37137;-78
2023/01/16 02:56:51;;;;;;;7.40;1.25;;;;;;;-146.25;93.71;52477.69;2087400;28;34650;-77
2023/01/16 02:58:00;;;;;;;7.10;1.13;;;;;;;-146.25;93.77;52475.66;2073251;28;46012;-77
2023/01/16 02:59:02;;;;;;;8.25;1.15;;;;;;;-146.25;93.47;52510.13;2081404;28;37672;-78
2023/01/16 03:00:07;;;;;;;9.00;1.30;;;;;;;-146.25;93.42;52504.03;2079795;28;37597;-77
2023/01/16 03:01:11;;;;;;;6.50;1.60;;;;;;;-146.25;93.77;52489.84;2080009;28;40286;-77
2023/01/16 03:02:14;;;;;;;6.18;1.30;;;;;;;-146.25;93.92;52516.22;2079700;28;41691;-77
2023/01/16 03:04:03;;;;;;;7.45;1.15;;;;;;;-146.25;93.72;52473.63;2088189;28;23817;-77
2023/01/16 03:05:06;;;;;;;7.38;1.25;;;;;;;-146.25;93.90;52487.81;2082156;28;37887;-77
2023/01/16 03:06:19;;;;;;;7.03;1.10;;;;;;;-146.25;94.00;52473.63;2088188;28;42033;-77
2023/01/16 03:08:03;;;;;;;7.38;1.25;;;;;;;-146.25;94.04;52477.69;2087690;28;42553;-77
2023/01/16 03:09:40;;;;;;;6.95;1.10;;;;;;;-146.25;94.26;52473.63;2078712;28;36330;-77
2023/01/16 03:11:08;;;;;;;7.70;1.08;;;;;;;-146.25;94.38;52522.28;2078852;28;43034;-77
2023/01/16 03:12:28;;;;;;;6.95;1.40;;;;;;;-146.25;94.77;52506.06;2077358;28;39280;-78
2023/01/16 03:13:41;;;;;;;5.55;1.48;;;;;;;-146.25;94.82;52489.84;2084338;28;42514;-77
2023/01/16 03:15:16;;;;;;;6.45;1.52;;;;;;;-146.25;95.00;52483.78;2086890;28;38204;-77
2023/01/16 03:16:18;;;;;;;3.42;1.20;;;;;;;-146.25;95.30;52502.03;2094371;28;20037;-78
2023/01/16 03:17:56;;;;;;;8.25;1.50;;;;;;;-146.25;95.24;52504.03;2095495;28;41494;-77
2023/01/16 03:19:32;;;;;;;9.57;1.60;;;;;;;-146.25;95.41;52514.19;2096901;28;20115;-77
2023/01/16 03:21:03;;;;;;;5.38;1.60;;;;;;;-146.25;95.71;52485.81;2087465;28;43100;-78
2023/01/16 03:22:25;;;;;;;;;;;;;;;-146.25;95.38;52506.06;2086510;28;39913;-77
2023/01/16 03:23:30;;;;;;;5.32;1.27;;;;;;;-146.25;95.63;52512.16;2084194;28;35268;-78
2023/01/16 03:24:47;;;;;;;7.70;1.50;;;;;;;-146.25;95.75;52526.34;2087522;28;21300;-77
2023/01/16 03:26:00;;;;;;;7.13;1.25;;;;;;;-146.25;95.66;52469.56;2085732;28;36988;-78
2023/01/16 03:27:46;;;;;;;5.60;1.70;;;;;;;-146.25;95.77;52524.31;2088496;28;41693;-77
2023/01/16 03:29:32;;;;;;;4.72;1.58;;;;;;;-146.25;95.77;52481.75;2096238;28;37125;-77
2023/01/16 03:30:45;;;;;;;9.50;2.15;;;;;;;-146.25;95.87;52497.97;2055050;28;20047;-77
2023/01/16 03:32:36;;;;;;;6.65;1.55;;;;;;;-146.25;95.57;52542.56;2095790;28;39737;-78
2023/01/16 03:34:14;;;;;;;5.50;1.63;;;;;;;-146.25;95.68;52485.81;2096506;28;26657;-77
2023/01/16 03:35:35;;;;;;;9.13;2.13;;;;;;;-146.25;95.67;52530.41;2087305;28;40555;-77
2023/01/16 03:37:14;;;;;;;6.07;1.45;;;;;;;-146.25;95.72;52471.59;2093204;28;20033;-78
2023/01/16 03:38:19;;;;;;;6.95;2.00;;;;;;;-146.25;95.73;52469.56;2086750;28;42183;-77
2023/01/16 03:39:30;;;;;;;5.45;1.80;;;;;;;-146.25;95.38;52487.81;2075575;28;36989;-77
2023/01/16 03:40:39;;;;;;;6.78;1.88;;;;;;;-146.25;95.85;52481.75;2080441;28;45163;-77
2023/01/16 03:41:47;;;;;;;8.57;2.03;;;;;;;-146.25;95.62;52469.56;2084410;28;38718;-77
2023/01/16 03:42:56;;;;;;;5.18;1.60;;;;;;;-146.25;95.83;52506.06;2079503;28;20819;-77
2023/01/16 03:44:07;;;;;;;6.68;1.67;;;;;;;-146.25;95.81;52510.13;2073220;28;20042;-77
2023/01/16 03:45:22;;;;;;;9.27;2.05;;;;;;;-146.25;95.57;52518.25;2072474;28;42568;-77
2023/01/16 03:46:30;;;;;;;8.50;1.67;;;;;;;-146.25;95.51;52479.72;2073103;28;40914;-77
2023/01/16 03:47:42;;;;;;;7.28;2.15;;;;;;;-146.25;95.56;52520.28;2072656;28;38369;-77
2023/01/16 03:48:55;;;;;;;8.55;1.88;;;;;;;-146.25;95.45;52497.97;2072452;28;37226;-76
2023/01/16 03:50:05;;;;;;;5.03;1.70;;;;;;;-146.25;95.20;52514.19;2081849;28;35892;-76
2023/01/16 03:51:11;;;;;;;5.55;1.63;;;;;;;-146.25;95.29;52506.06;2087525;28;43058;-76
2023/01/16 03:52:18;;;;;;;8.27;1.83;;;;;;;-146.25;95.13;52493.91;2088944;28;20044;-76
2023/01/16 03:53:30;;;;;;;8.52;2.00;;;;;;;-146.25;95.43;52516.22;2078645;28;40230;-76
2023/01/16 03:54:59;;;;;;;7.35;1.77;;;;;;;-146.25;95.41;52485.81;2072481;28;39931;-76
2023/01/16 03:56:10;;;;;;;4.45;1.60;;;;;;;-146.25;95.49;52518.25;2083861;28;36859;-76
2023/01/16 03:57:35;;;;;;;9.20;2.00;;;;;;;-146.25;95.62;52485.81;2088283;28;20049;-76
2023/01/16 03:58:40;;;;;;;6.65;2.05;;;;;;;-146.25;95.56;52504.03;2078715;28;43330;-75
2023/01/16 03:59:46;;;;;;;7.30;1.90;;;;;;;-146.25;95.61;52481.75;2072791;28;34992;-75
2023/01/16 04:01:22;;;;;;;5.78;2.03;;;;;;;-146.25;95.57;52469.56;2071548;28;33102;-78
2023/01/16 04:02:34;;;;;;;5.85;1.88;;;;;;;-146.25;95.34;52483.78;2085338;28;43490;-76
2023/01/16 04:03:44;;;;;;;5.38;1.80;;;;;;;-146.25;95.43;52481.75;2097188;28;20041;-76
2023/01/16 04:05:07;;;;;;;5.10;2.08;;;;;;;-146.25;95.31;52489.84;2086852;28;40827;-78
2023/01/16 04:06:30;;;;;;;5.13;1.80;;;;;;;-146.25;95.25;52514.19;2084729;28;26611;-75
2023/01/16 04:07:40;;;;;;;7.88;1.98;;;;;;;-146.25;95.17;52512.16;2084477;28;37877;-76
2023/01/16 04:08:46;;;;;;;4.38;2.05;;;;;;;-146.25;95.33;52485.81;2083080;28;20960;-76
2023/01/16 04:09:57;;;;;;;7.18;2.40;;;;;;;-146.25;95.21;52487.81;2081272;28;36704;-76
2023/01/16 04:11:00;;;;;;;4.93;1.90;;;;;;;-146.25;95.25;52504.03;2081464;28;39118;-76
2023/01/16 04:12:07;;;;;;;6.65;2.28;;;;;;;-146.25;95.23;52518.25;2081121;28;36961;-76
2023/01/16 04:13:18;;;;;;;4.78;2.17;;;;;;;-146.25;95.24;52502.03;2081202;28;39766;-76
2023/01/16 04:14:23;;;;;;;5.47;2.15;;;;;;;-146.25;95.00;52465.53;2082112;28;41447;-76
2023/01/16 04:15:29;;;;;;;6.15;2.33;;;;;;;-146.25;94.70;52508.09;2073186;28;33982;-76
2023/01/16 04:16:32;;;;;;;7.10;2.28;;;;;;;-146.25;94.92;52469.56;2082323;28;37335;-76
2023/01/16 04:17:36;;;;;;;3.58;1.92;;;;;;;-146.25;94.90;52481.75;2087853;28;39239;-76
2023/01/16 04:18:38;;;;;;;11.20;2.00;;;;;;;-146.25;94.92;52502.03;2081631;28;20803;-76
2023/01/16 04:19:39;;;;;;;5.53;2.25;;;;;;;-146.25;95.00;52461.47;2087674;28;38865;-76
2023/01/16 04:20:46;;;;;;;5.78;2.33;;;;;;;-146.25;94.73;52504.03;2089153;28;22772;-76
2023/01/16 04:21:48;;;;;;;4.90;1.80;;;;;;;-146.25;94.96;52485.81;2080673;28;36314;-76
2023/01/16 04:22:50;;;;;;;5.57;2.22;;;;;;;-146.25;95.04;52467.56;2088976;28;36465;-76
2023/01/16 04:23:55;;;;;;;7.07;2.22;;;;;;;-146.25;94.71;52524.31;2087663;28;39223;-76
2023/01/16 04:25:00;;;;;;;5.90;2.15;;;;;;;-146.25;94.51;52497.97;2089660;28;20041;-76
2023/01/16 04:26:04;;;;;;;4.20;2.15;;;;;;;-146.25;94.16;52518.25;2088901;28;20857;-75
2023/01/16 04:27:06;;;;;;;9.23;2.60;;;;;;;-146.25;93.84;52522.28;2081119;28;39085;-78
2023/01/16 04:28:08;;;;;;;6.35;2.08;;;;;;;-146.25;93.65;52493.91;2088319;28;39569;-76
2023/01/16 04:29:12;;;;;;;3.85;2.03;;;;;;;-146.25;93.86;52459.44;2096966;28;41198;-77
2023/01/16 04:30:15;;;;;;;4.47;2.15;;;;;;;-146.25;93.97;52510.13;2096686;28;38784;-77
2023/01/16 04:31:16;;;;;;;4.53;2.28;;;;;;;-146.25;93.53;52516.22;2097162;28;41635;-77
2023/01/16 04:32:18;;;;;;;5.88;2.72;;;;;;;-146.25;93.59;52514.19;2088669;28;20902;-77
2023/01/16 04:33:20;;;;;;;5.57;2.22;;;;;;;-146.25;93.54;52469.56;2088424;28;41310;-77
2023/01/16 04:34:22;;;;;;;4.72;2.22;;;;;;;-146.25;93.23;52500.00;2097030;28;38359;-76
2023/01/16 04:35:25;;;;;;;3.53;2.08;;;;;;;-146.25;93.35;52493.91;2097060;28;38721;-77
2023/01/16 04:36:26;;;;;;;4.88;1.90;;;;;;;-146.25;93.44;52475.66;2097141;28;37732;-78
2023/01/16 04:37:28;;;;;;;4.35;1.90;;;;;;;-146.25;92.92;52506.06;2088576;28;36580;-77
2023/01/16 04:38:30;;;;;;;5.82;2.17;;;;;;;-146.25;93.25;52473.63;2079335;28;45439;-77
2023/01/16 04:39:31;;;;;;;3.80;2.30;;;;;;;-146.25;92.98;52489.84;2080236;28;27664;-77
2023/01/16 04:40:33;;;;;;;3.95;2.55;;;;;;;-146.25;92.72;52461.47;2088304;28;20872;-77
2023/01/16 04:41:38;;;;;;;6.03;2.30;;;;;;;-146.25;92.90;52504.03;2079892;28;37562;-77
2023/01/16 04:42:39;;;;;;;3.53;2.15;;;;;;;-146.25;93.06;52485.81;2079977;28;35822;-77
2023/01/16 04:43:41;;;;;;;4.90;2.35;;;;;;;-146.25;92.77;52473.63;2089025;28;39013;-77
2023/01/16 04:44:43;;;;;;;4.82;2.30;;;;;;;-146.25;92.59;52510.13;2089203;28;24429;-78
2023/01/16 04:45:46;;;;;;;5.32;2.53;;;;;;;-146.25;92.67;52489.84;2088771;28;40755;-77
2023/01/16 04:46:48;;;;;;;2.97;2.20;;;;;;;-146.25;92.58;52481.75;2088482;28;39310;-77
2023/01/16 04:47:52;;;;;;;4.55;2.42;;;;;;;-146.25;92.65;52463.50;2088299;28;38410;-77
2023/01/16 04:48:56;;;;;;;2.88;1.90;;;;;;;-146.25;92.41;52483.78;2088393;28;37948;-77
2023/01/16 04:49:58;;;;;;;5.13;2.42;;;;;;;-146.25;92.74;52518.25;2089113;28;41060;-77
2023/01/16 04:50:59;;;;;;;6.90;2.42;;;;;;;-146.25;92.57;52500.00;2080409;28;20077;-77
2023/01/16 04:52:02;;;;;;;2.85;2.13;;;;;;;-146.25;92.49;52489.84;2084422;28;42440;-78
2023/01/16 04:53:05;;;;;;;5.90;2.42;;;;;;;-146.25;92.88;52477.69;2088484;28;36568;-76
2023/01/16 04:54:14;;;;;;;4.55;2.10;;;;;;;-146.25;92.56;52453.34;2088078;28;38897;-77
2023/01/16 04:55:16;;;;;;;2.88;1.90;;;;;;;-146.25;92.79;52514.19;2079947;28;38740;-77
2023/01/16 04:56:18;;;;;;;7.82;2.53;;;;;;;-146.25;92.68;52493.91;2081826;28;24538;-77
2023/01/16 04:57:20;;;;;;;4.90;2.67;;;;;;;-146.25;92.81;52473.63;2095533;28;42783;-77
2023/01/16 04:58:21;;;;;;;3.80;2.30;;;;;;;-146.25;92.79;52497.97;2097552;28;32724;-77
2023/01/16 04:59:23;;;;;;;2.70;2.17;;;;;;;-146.25;92.60;52506.06;2096648;28;42116;-77
2023/01/16 05:00:25;;;;;;;4.63;2.45;;;;;;;-146.25;92.88;52491.88;2097259;28;38899;-77
2023/01/16 05:01:26;;;;;;;4.43;2.50;;;;;;;-146.25;92.82;52526.34;2096819;28;39439;-77
2023/01/16 05:02:28;;;;;;;4.15;2.33;;;;;;;-146.25;92.61;52506.06;2096037;28;41897;-77
2023/01/16 05:03:30;;;;;;;6.35;2.45;;;;;;;-146.25;92.76;52477.69;2097004;28;37045;-77
2023/01/16 05:04:32;;;;;;;3.13;2.70;;;;;;;-146.25;92.51;52445.25;2097238;28;39165;-77
2023/01/16 05:05:33;;;;;;;6.88;2.40;;;;;;;-146.25;92.50;52447.28;2097736;28;20045;-77
2023/01/16 05:06:36;;;;;;;3.40;2.53;;;;;;;-146.25;92.79;52530.41;2096849;28;38583;-77
2023/01/16 05:07:37;;;;;;;3.03;2.60;;;;;;;-146.25;93.06;52514.19;2096832;28;38545;-78
2023/01/16 05:08:41;;;;;;;3.80;2.53;;;;;;;-146.25;92.93;52439.16;2096588;28;20045;-77
2023/01/16 05:09:43;;;;;;;3.22;2.40;;;;;;;-146.25;92.41;52475.66;2096060;28;37870;-77
2023/01/16 05:10:46;;;;;;;4.22;2.72;;;;;;;-146.25;92.69;52479.72;2097212;28;39697;-77
2023/01/16 05:11:47;;;;;;;3.65;2.55;;;;;;;-146.25;92.45;52471.59;2097943;28;35611;-77
2023/01/16 05:12:49;;;;;;;3.40;2.63;;;;;;;-146.25;92.29;52506.06;2087735;28;41647;-77
2023/01/16 05:13:51;;;;;;;5.57;2.70;;;;;;;-146.25;92.50;52477.69;2087022;28;37170;-77
2023/01/16 05:14:53;;;;;;;6.53;2.60;;;;;;;-146.25;92.67;52510.13;2088460;28;37552;-77
2023/01/16 05:15:55;;;;;;;3.47;2.67;;;;;;;-146.25;92.71;52493.91;2088337;28;39002;-77
2023/01/16 05:16:56;;;;;;;5.18;2.65;;;;;;;-146.25;92.73;52502.03;2087904;28;39108;-78
2023/01/16 05:17:58;;;;;;;4.55;2.92;;;;;;;-146.25;92.78;52522.28;2088246;28;36016;-77
2023/01/16 05:19:00;;;;;;;4.38;3.05;;;;;;;-146.25;92.67;52514.19;2089627;28;39103;-77
2023/01/16 05:20:01;;;;;;;4.20;2.75;;;;;;;-146.25;92.73;52475.66;2096769;28;38312;-77